Time;durP1;ratioP1;P1;durP2;ratioP2;P2;SDS_P1;SDS_P2;PMS_P1;PMS_P2;Temp;Humidity;BMP_temperature;BMP_pressure;BME280_temperature;BME280_humidity;BME280_pressure;Samples;Min_cycle;Max_cycle;Signal;HPM_P1;HPM_P2
2021/11/29 00:00:20;;;;;;;13.80;7.70;;;0.70;99.90;;;;;;5048711;28;20497;-69
2021/11/29 00:02:50;;;;;;;13.25;7.60;;;0.70;99.90;;;;;;5034293;28;20511;-69
2021/11/29 00:05:19;;;;;;;16.92;8.75;;;0.70;99.90;;;;;;5034137;28;20064;-69
2021/11/29 00:07:46;;;;;;;14.85;8.95;;;0.70;99.90;;;;;;5017253;28;20041;-69
2021/11/29 00:10:12;;;;;;;16.17;9.80;;;0.60;99.90;;;;;;5051771;28;20089;-69
2021/11/29 00:12:39;;;;;;;11.77;8.30;;;0.60;99.90;;;;;;5051486;28;20121;-68
2021/11/29 00:15:07;;;;;;;15.50;9.70;;;0.60;99.90;;;;;;5050148;28;20068;-71
2021/11/29 00:17:34;;;;;;;14.90;9.65;;;0.60;99.90;;;;;;5049873;28;20126;-69
2021/11/29 00:20:03;;;;;;;14.18;9.38;;;0.60;99.90;;;;;;5051178;28;20392;-69
2021/11/29 00:22:30;;;;;;;14.43;8.45;;;0.50;99.90;;;;;;5051178;28;20053;-69
2021/11/29 00:24:57;;;;;;;13.90;9.30;;;0.50;99.90;;;;;;5048830;28;20045;-69
2021/11/29 00:27:24;;;;;;;16.23;9.48;;;0.40;99.90;;;;;;5049411;28;20052;-69
2021/11/29 00:29:51;;;;;;;17.13;9.15;;;0.40;99.90;;;;;;5050377;28;20080;-69
2021/11/29 00:32:18;;;;;;;14.88;9.50;;;0.40;99.90;;;;;;5033738;28;20076;-68
2021/11/29 00:34:45;;;;;;;15.93;9.95;;;0.40;99.90;;;;;;5051757;28;20130;-68
2021/11/29 00:37:12;;;;;;;12.75;8.40;;;0.30;99.90;;;;;;5050074;28;20045;-69
2021/11/29 00:39:39;;;;;;;15.32;10.27;;;0.30;99.90;;;;;;5033270;28;20426;-69
2021/11/29 00:42:06;;;;;;;13.85;9.75;;;0.30;99.90;;;;;;5064692;28;20041;-69
2021/11/29 00:44:33;;;;;;;18.60;10.43;;;0.30;99.90;;;;;;5049410;28;20049;-70
2021/11/29 00:47:02;;;;;;;16.67;9.25;;;0.20;99.90;;;;;;5050149;28;20049;-70
2021/11/29 00:49:30;;;;;;;15.95;10.07;;;0.30;99.90;;;;;;5048727;28;20048;-69
2021/11/29 00:51:57;;;;;;;15.77;9.60;;;0.20;99.90;;;;;;5049016;28;20040;-70
2021/11/29 00:54:24;;;;;;;18.75;10.35;;;0.20;99.90;;;;;;5044829;28;20059;-70
2021/11/29 00:56:51;;;;;;;16.13;9.80;;;0.10;99.90;;;;;;5049311;28;20041;-70
2021/11/29 00:59:17;;;;;;;17.33;10.82;;;0.10;99.90;;;;;;5050800;28;20090;-69
2021/11/29 01:01:44;;;;;;;15.93;9.07;;;0.10;99.90;;;;;;5050569;28;20083;-69
2021/11/29 01:04:12;;;;;;;15.07;9.40;;;0.00;99.90;;;;;;5049052;28;20068;-70
2021/11/29 01:06:39;;;;;;;15.98;9.48;;;0.00;99.90;;;;;;5047652;28;20045;-69
2021/11/29 01:09:06;;;;;;;17.35;10.57;;;-0.10;99.90;;;;;;5050620;28;20083;-70
2021/11/29 01:11:33;;;;;;;15.05;9.85;;;-0.10;99.90;;;;;;5048600;28;20049;-68
2021/11/29 01:14:00;;;;;;;15.48;10.07;;;-0.10;99.90;;;;;;5032959;28;20097;-68
2021/11/29 01:16:27;;;;;;;19.63;10.27;;;-0.10;99.90;;;;;;5048449;28;20060;-69
2021/11/29 01:18:54;;;;;;;21.42;11.90;;;-0.10;99.90;;;;;;5048768;28;20176;-70
2021/11/29 01:21:21;;;;;;;16.10;10.38;;;-0.10;99.90;;;;;;5063992;28;20064;-69
2021/11/29 01:23:49;;;;;;;19.33;9.90;;;0.00;99.90;;;;;;5049144;28;20094;-69
2021/11/29 01:26:16;;;;;;;17.80;11.05;;;0.00;99.90;;;;;;5048842;28;20053;-69
2021/11/29 01:28:43;;;;;;;20.73;12.07;;;0.00;99.90;;;;;;5048683;28;20041;-70
2021/11/29 01:31:10;;;;;;;14.63;10.27;;;0.00;99.90;;;;;;5047750;28;20421;-69
2021/11/29 01:33:37;;;;;;;17.50;11.02;;;0.00;99.90;;;;;;5049459;28;20535;-69
2021/11/29 01:36:04;;;;;;;18.77;11.95;;;0.00;99.90;;;;;;5050421;28;20053;-68
2021/11/29 01:38:32;;;;;;;18.25;10.77;;;0.00;99.90;;;;;;5050466;28;20117;-68
2021/11/29 01:40:59;;;;;;;17.65;10.30;;;0.00;99.90;;;;;;5048831;28;20048;-68
2021/11/29 01:43:26;;;;;;;18.50;11.23;;;0.00;99.90;;;;;;5048899;28;20049;-69
2021/11/29 01:45:54;;;;;;;19.48;10.80;;;0.00;99.90;;;;;;5048410;28;20041;-69
2021/11/29 01:48:21;;;;;;;17.92;11.95;;;0.00;99.90;;;;;;5048580;28;20148;-70
2021/11/29 01:50:50;;;;;;;20.85;12.30;;;0.00;99.90;;;;;;5049210;28;20048;-69
2021/11/29 01:53:18;;;;;;;19.60;12.43;;;0.00;99.90;;;;;;5048258;28;20357;-69
2021/11/29 01:55:45;;;;;;;21.83;12.15;;;-0.10;99.90;;;;;;5049195;28;20128;-69
2021/11/29 01:58:12;;;;;;;14.95;10.88;;;-0.10;99.90;;;;;;5049693;28;20405;-68
2021/11/29 02:00:45;;;;;;;19.77;12.25;;;-0.10;99.90;;;;;;5031975;28;20041;-69
2021/11/29 02:03:12;;;;;;;19.67;11.25;;;-0.20;99.90;;;;;;5047091;28;20516;-70
2021/11/29 02:05:39;;;;;;;17.88;11.40;;;-0.20;99.90;;;;;;5048783;28;20045;-68
2021/11/29 02:08:07;;;;;;;19.35;11.93;;;-0.20;99.90;;;;;;5047682;28;20068;-68
2021/11/29 02:10:34;;;;;;;18.33;11.13;;;-0.30;99.90;;;;;;5047941;28;20049;-68
2021/11/29 02:13:01;;;;;;;21.70;12.18;;;-0.30;99.90;;;;;;5047846;28;20053;-69
2021/11/29 02:15:28;;;;;;;17.08;11.15;;;-0.30;99.90;;;;;;5042438;28;20052;-69
2021/11/29 02:17:57;;;;;;;20.70;12.38;;;-0.40;99.90;;;;;;5049062;28;20420;-68
2021/11/29 02:20:24;;;;;;;16.90;11.10;;;-0.40;99.90;;;;;;5046878;28;20211;-68
2021/11/29 02:22:51;;;;;;;17.70;12.57;;;-0.40;99.90;;;;;;5049378;28;20480;-68
2021/11/29 02:25:19;;;;;;;20.00;12.13;;;-0.40;99.90;;;;;;5033853;28;20048;-69
2021/11/29 02:27:49;;;;;;;16.73;10.90;;;-0.40;99.90;;;;;;5048125;28;20048;-67
2021/11/29 02:30:17;;;;;;;19.15;11.60;;;-0.40;99.90;;;;;;5045032;28;20060;-68
2021/11/29 02:32:46;;;;;;;22.48;13.63;;;-0.30;99.90;;;;;;5056496;28;20049;-68
2021/11/29 02:35:13;;;;;;;22.50;12.73;;;-0.40;99.90;;;;;;5055785;28;20053;-67
2021/11/29 02:37:40;;;;;;;20.95;11.43;;;-0.40;99.90;;;;;;5050578;28;20091;-68
2021/11/29 02:40:08;;;;;;;19.33;12.50;;;-0.40;99.90;;;;;;5049577;28;20484;-69
2021/11/29 02:42:35;;;;;;;22.88;12.95;;;-0.40;99.90;;;;;;5046936;28;20060;-69
2021/11/29 02:45:02;;;;;;;22.75;13.48;;;-0.40;99.90;;;;;;5047512;28;20041;-67
2021/11/29 02:47:29;;;;;;;21.65;14.00;;;-0.40;99.90;;;;;;5047520;28;20358;-69
2021/11/29 02:49:56;;;;;;;24.48;13.52;;;-0.50;99.90;;;;;;5045386;28;20053;-68
2021/11/29 02:52:23;;;;;;;22.38;14.52;;;-0.50;99.90;;;;;;5049111;28;20045;-68
2021/11/29 02:54:50;;;;;;;22.10;13.57;;;-0.40;99.90;;;;;;5045806;28;20041;-71
2021/11/29 02:57:19;;;;;;;22.98;13.20;;;-0.40;99.90;;;;;;5049139;28;20515;-69
2021/11/29 02:59:46;;;;;;;25.10;15.15;;;-0.40;99.90;;;;;;5031566;28;20093;-68
2021/11/29 03:02:15;;;;;;;23.48;14.02;;;-0.40;99.90;;;;;;5048292;28;20044;-68
2021/11/29 03:04:42;;;;;;;24.48;15.65;;;-0.40;99.90;;;;;;5019524;28;20100;-68
2021/11/29 03:07:09;;;;;;;25.15;15.57;;;-0.40;99.90;;;;;;5058042;28;20103;-69
2021/11/29 03:09:36;;;;;;;23.80;14.63;;;-0.40;99.90;;;;;;5046548;28;20096;-68
2021/11/29 03:12:04;;;;;;;24.10;13.85;;;-0.40;99.90;;;;;;5047658;28;20041;-67
2021/11/29 03:14:31;;;;;;;25.55;15.88;;;-0.30;99.90;;;;;;5026962;28;20041;-69
2021/11/29 03:16:58;;;;;;;21.40;14.57;;;-0.30;99.90;;;;;;5051604;28;20049;-70
2021/11/29 03:19:33;;;;;;;22.05;13.35;;;-0.30;99.90;;;;;;5036218;28;20048;-70
2021/11/29 03:22:00;;;;;;;23.13;15.27;;;-0.30;99.90;;;;;;5063336;28;20119;-69
2021/11/29 03:24:27;;;;;;;24.98;14.63;;;-0.30;99.90;;;;;;5047553;28;20044;-68
2021/11/29 03:26:54;;;;;;;27.67;14.25;;;-0.30;99.90;;;;;;5048969;28;20136;-69
2021/11/29 03:29:21;;;;;;;22.60;13.68;;;-0.30;99.90;;;;;;5047098;28;20049;-70
2021/11/29 03:31:53;;;;;;;22.98;13.48;;;-0.20;99.90;;;;;;5047304;28;20084;-68
2021/11/29 03:34:21;;;;;;;23.73;14.05;;;-0.20;99.90;;;;;;5049880;28;20048;-69
2021/11/29 03:36:48;;;;;;;24.63;14.15;;;-0.30;99.90;;;;;;5052257;28;20100;-69
2021/11/29 03:39:21;;;;;;;23.23;14.60;;;-0.30;99.90;;;;;;5034115;28;20412;-68
2021/11/29 03:41:48;;;;;;;23.25;14.38;;;-0.30;99.90;;;;;;5054156;28;20041;-68
2021/11/29 03:44:15;;;;;;;24.67;13.45;;;-0.20;99.90;;;;;;5065403;28;20045;-68
2021/11/29 03:46:42;;;;;;;23.00;13.82;;;-0.30;99.90;;;;;;5050760;28;20049;-69
2021/11/29 03:49:09;;;;;;;23.13;14.60;;;-0.30;99.90;;;;;;5050035;28;20052;-69
2021/11/29 03:51:37;;;;;;;26.08;15.32;;;-0.30;99.90;;;;;;5062897;28;20048;-70
2021/11/29 03:54:03;;;;;;;24.75;14.20;;;-0.30;99.90;;;;;;5052288;28;20057;-69
2021/11/29 03:56:31;;;;;;;27.25;14.50;;;-0.40;99.90;;;;;;5051816;28;20063;-69
2021/11/29 03:58:58;;;;;;;28.33;14.85;;;-0.40;99.90;;;;;;5050469;28;20041;-69
2021/11/29 04:01:26;;;;;;;24.17;13.82;;;-0.40;99.90;;;;;;5050036;28;20098;-69
2021/11/29 04:03:53;;;;;;;26.08;14.68;;;-0.40;99.90;;;;;;5045845;28;20121;-68
2021/11/29 04:06:20;;;;;;;25.15;14.50;;;-0.40;99.90;;;;;;5051525;28;20057;-69
2021/11/29 04:08:47;;;;;;;25.30;15.00;;;-0.40;99.90;;;;;;5050938;28;20106;-70
2021/11/29 04:11:14;;;;;;;24.55;16.55;;;-0.40;99.90;;;;;;5051973;28;20052;-69
2021/11/29 04:13:42;;;;;;;27.73;15.80;;;-0.40;99.90;;;;;;5050820;28;20199;-69
2021/11/29 04:16:10;;;;;;;25.17;14.50;;;-0.40;99.90;;;;;;5050554;28;20418;-69
2021/11/29 04:18:37;;;;;;;27.98;15.10;;;-0.40;99.90;;;;;;5050630;28;20056;-69
2021/11/29 04:21:06;;;;;;;28.25;15.63;;;-0.40;99.90;;;;;;5051461;28;20068;-69
2021/11/29 04:23:33;;;;;;;27.65;16.45;;;-0.50;99.90;;;;;;5062078;28;20051;-69
2021/11/29 04:26:01;;;;;;;30.13;15.07;;;-0.50;99.90;;;;;;5030683;28;20060;-69
2021/11/29 04:28:29;;;;;;;27.25;15.27;;;-0.40;99.90;;;;;;5050365;28;20053;-69
2021/11/29 04:30:56;;;;;;;24.23;13.93;;;-0.50;99.90;;;;;;5051117;28;20101;-70
2021/11/29 04:33:23;;;;;;;25.63;14.13;;;-0.50;99.90;;;;;;5050017;28;20053;-70
2021/11/29 04:35:50;;;;;;;27.88;15.23;;;-0.50;99.90;;;;;;5049773;28;20131;-69
2021/11/29 04:38:19;;;;;;;26.92;14.65;;;-0.40;99.90;;;;;;5032255;28;20057;-69
2021/11/29 04:40:46;;;;;;;25.33;15.30;;;-0.50;99.90;;;;;;5051439;28;20064;-69
2021/11/29 04:43:13;;;;;;;28.38;15.85;;;-0.50;99.90;;;;;;5050035;28;20044;-69
2021/11/29 04:45:43;;;;;;;29.80;16.02;;;-0.50;99.90;;;;;;5049208;28;20067;-69
2021/11/29 04:48:11;;;;;;;29.83;16.50;;;-0.50;99.90;;;;;;5049860;28;20091;-69
2021/11/29 04:50:38;;;;;;;28.15;16.35;;;-0.50;99.90;;;;;;5050787;28;20053;-69
2021/11/29 04:53:05;;;;;;;34.30;18.73;;;-0.50;99.90;;;;;;5050610;28;20056;-71
2021/11/29 04:55:32;;;;;;;28.80;15.38;;;-0.50;99.90;;;;;;5050063;28;20471;-69
2021/11/29 04:57:59;;;;;;;28.60;15.32;;;-0.50;99.90;;;;;;5050025;28;20072;-70
2021/11/29 05:00:26;;;;;;;28.80;17.38;;;-0.50;99.90;;;;;;5046317;28;20060;-69
2021/11/29 05:02:52;;;;;;;28.55;16.60;;;-0.50;99.90;;;;;;5050214;28;20049;-70
2021/11/29 05:05:20;;;;;;;25.10;14.70;;;-0.50;99.90;;;;;;5049539;28;20071;-69
2021/11/29 05:07:47;;;;;;;25.63;15.05;;;-0.50;99.90;;;;;;5055431;28;20120;-70
2021/11/29 05:10:14;;;;;;;26.33;14.13;;;-0.50;99.90;;;;;;5063098;28;20398;-71
2021/11/29 05:12:42;;;;;;;26.08;14.27;;;-0.50;99.90;;;;;;5069936;28;20463;-68
2021/11/29 05:15:09;;;;;;;27.17;15.18;;;-0.50;99.90;;;;;;5049550;28;20063;-70
2021/11/29 05:17:36;;;;;;;32.35;17.42;;;-0.50;99.90;;;;;;5047948;28;20522;-69
2021/11/29 05:20:05;;;;;;;28.40;15.52;;;-0.50;99.90;;;;;;5049316;28;20053;-69
2021/11/29 05:22:32;;;;;;;30.73;16.52;;;-0.50;99.90;;;;;;5029880;28;20057;-70
2021/11/29 05:24:59;;;;;;;30.08;16.23;;;-0.50;99.90;;;;;;5048845;28;20048;-69
2021/11/29 05:27:26;;;;;;;22.27;14.23;;;-0.50;99.90;;;;;;5041045;28;20413;-69
2021/11/29 05:29:53;;;;;;;31.48;16.15;;;-0.50;99.90;;;;;;5050111;28;20097;-69
2021/11/29 05:32:20;;;;;;;31.02;14.77;;;-0.50;99.90;;;;;;5050884;28;20045;-70
2021/11/29 05:34:47;;;;;;;27.33;14.07;;;-0.50;99.90;;;;;;5064216;28;20511;-69
2021/11/29 05:37:22;;;;;;;29.88;16.67;;;-0.60;99.90;;;;;;5050963;28;20084;-69
2021/11/29 05:39:50;;;;;;;25.60;13.88;;;-0.60;99.90;;;;;;5028880;28;20140;-70
2021/11/29 05:42:35;;;;;;;27.20;16.05;;;-0.60;99.90;;;;;;5049693;28;20078;-69
2021/11/29 05:45:05;;;;;;;29.45;15.57;;;-0.60;99.90;;;;;;5048656;28;20126;-72
2021/11/29 05:47:32;;;;;;;27.65;14.23;;;-0.60;99.90;;;;;;5049055;28;20049;-70
2021/11/29 05:49:59;;;;;;;30.45;16.95;;;-0.60;99.90;;;;;;5047843;28;20484;-69
2021/11/29 05:52:26;;;;;;;26.75;14.75;;;-0.60;99.90;;;;;;5047919;28;20057;-70
2021/11/29 05:54:53;;;;;;;29.58;17.08;;;-0.60;99.90;;;;;;5049002;28;20049;-70
2021/11/29 05:57:20;;;;;;;30.85;14.77;;;-0.60;99.90;;;;;;5026695;28;20049;-70
2021/11/29 05:59:48;;;;;;;36.10;17.08;;;-0.60;99.90;;;;;;5048381;28;20048;-71
2021/11/29 06:02:15;;;;;;;26.80;15.85;;;-0.60;99.90;;;;;;5049619;28;20048;-70
2021/11/29 06:04:42;;;;;;;26.13;13.75;;;-0.60;99.90;;;;;;5031587;28;20051;-70
2021/11/29 06:07:09;;;;;;;29.40;15.25;;;-0.60;99.90;;;;;;5030135;28;20072;-70
2021/11/29 06:09:38;;;;;;;32.92;16.33;;;-0.60;99.90;;;;;;5048032;28;20049;-71
2021/11/29 06:12:05;;;;;;;37.22;17.73;;;-0.50;99.90;;;;;;5048803;28;20150;-71
2021/11/29 06:14:35;;;;;;;29.17;16.85;;;-0.50;99.90;;;;;;5050023;28;20473;-70
2021/11/29 06:17:03;;;;;;;27.55;15.38;;;-0.50;99.90;;;;;;5048674;28;20045;-70
2021/11/29 06:19:30;;;;;;;31.15;15.60;;;-0.50;99.90;;;;;;5047883;28;20048;-71
2021/11/29 06:21:57;;;;;;;28.77;14.05;;;-0.50;99.90;;;;;;5049371;28;20137;-69
2021/11/29 06:24:24;;;;;;;26.25;15.18;;;-0.50;99.90;;;;;;5043560;28;20053;-71
2021/11/29 06:26:51;;;;;;;26.88;14.98;;;-0.50;99.90;;;;;;5048459;28;20041;-70
2021/11/29 06:29:17;;;;;;;31.15;15.65;;;-0.60;99.90;;;;;;5048515;28;20049;-70
2021/11/29 06:31:44;;;;;;;27.20;15.80;;;-0.60;99.90;;;;;;5047865;28;20508;-70
2021/11/29 06:34:11;;;;;;;29.67;16.13;;;-0.60;99.90;;;;;;5048764;28;20099;-70
2021/11/29 06:36:38;;;;;;;29.52;16.42;;;-0.60;99.90;;;;;;5049526;28;20045;-70
2021/11/29 06:39:05;;;;;;;26.55;14.30;;;-0.60;99.90;;;;;;5047492;28;20063;-63
2021/11/29 06:41:32;;;;;;;29.17;15.80;;;-0.50;99.90;;;;;;5048997;28;20053;-69
2021/11/29 06:43:59;;;;;;;107.80;63.50;;;-0.50;99.90;;;;;;5049270;28;20059;-68
2021/11/29 06:46:26;;;;;;;47.40;27.42;;;-0.50;99.90;;;;;;5049086;28;20045;-69
2021/11/29 06:48:53;;;;;;;34.00;19.15;;;-0.40;99.90;;;;;;5028184;28;20056;-72
2021/11/29 06:51:24;;;;;;;30.38;17.02;;;-0.40;99.90;;;;;;5040678;28;20049;-70
2021/11/29 06:53:50;;;;;;;33.03;17.20;;;-0.40;99.90;;;;;;5048044;28;20093;-67
2021/11/29 06:56:18;;;;;;;30.60;16.75;;;-0.40;99.90;;;;;;5031403;28;20127;-64
2021/11/29 06:58:45;;;;;;;32.13;17.05;;;-0.40;99.90;;;;;;5047332;28;20098;-67
2021/11/29 07:01:12;;;;;;;29.80;16.15;;;-0.40;99.90;;;;;;5030388;28;20057;-66
2021/11/29 07:03:39;;;;;;;28.70;14.82;;;-0.50;99.90;;;;;;5048070;28;20095;-67
2021/11/29 07:06:06;;;;;;;31.75;17.92;;;-0.50;99.90;;;;;;5050938;28;20052;-66
2021/11/29 07:08:34;;;;;;;30.58;17.23;;;-0.50;99.90;;;;;;5047190;28;20505;-66
2021/11/29 07:11:01;;;;;;;29.10;15.13;;;-0.50;99.90;;;;;;5051537;28;20037;-66
2021/11/29 07:13:28;;;;;;;51.38;28.20;;;-0.50;99.90;;;;;;5051084;28;20082;-65
2021/11/29 07:15:55;;;;;;;40.45;23.70;;;-0.40;99.90;;;;;;5051740;28;20057;-64
2021/11/29 07:18:27;;;;;;;34.03;17.60;;;-0.40;99.90;;;;;;5050224;28;20064;-63
2021/11/29 07:20:55;;;;;;;26.70;14.60;;;-0.40;99.90;;;;;;5050728;28;20048;-65
2021/11/29 07:23:23;;;;;;;59.28;36.58;;;-0.40;99.90;;;;;;5033167;28;20163;-66
2021/11/29 07:25:50;;;;;;;478.92;217.63;;;-0.40;99.90;;;;;;5037535;28;20136;-66
2021/11/29 07:28:17;;;;;;;717.63;302.77;;;-0.40;99.90;;;;;;5049992;28;20049;-66
2021/11/29 07:30:44;;;;;;;108.63;66.45;;;-0.40;99.90;;;;;;5033097;28;20045;-65
2021/11/29 07:33:11;;;;;;;71.05;33.63;;;-0.40;99.90;;;;;;5055255;28;20061;-74
2021/11/29 07:35:38;;;;;;;31.70;18.50;;;-0.40;99.90;;;;;;5044261;28;20076;-62
2021/11/29 07:38:05;;;;;;;32.95;17.38;;;-0.50;99.90;;;;;;5033356;28;20057;-65
2021/11/29 07:40:32;;;;;;;31.92;18.02;;;-0.50;99.90;;;;;;5049739;28;20502;-62
2021/11/29 07:43:05;;;;;;;29.45;15.35;;;-0.50;99.90;;;;;;5048736;28;20052;-66
2021/11/29 07:45:32;;;;;;;31.40;15.80;;;-0.50;99.90;;;;;;5066196;28;20124;-66
2021/11/29 07:47:59;;;;;;;28.48;14.90;;;-0.50;99.90;;;;;;5065667;28;20053;-63
2021/11/29 07:50:26;;;;;;;29.20;14.95;;;-0.50;99.90;;;;;;5049219;28;20147;-64
2021/11/29 07:52:53;;;;;;;30.38;15.80;;;-0.50;99.90;;;;;;5049566;28;20107;-63
2021/11/29 07:55:25;;;;;;;32.70;16.17;;;-0.50;99.90;;;;;;5066209;28;20060;-62
2021/11/29 07:57:52;;;;;;;31.90;15.43;;;-0.50;99.90;;;;;;5048647;28;20139;-63
2021/11/29 08:00:21;;;;;;;27.83;15.73;;;-0.40;99.90;;;;;;5048905;28;20093;-70
2021/11/29 08:02:50;;;;;;;33.38;17.35;;;-0.50;99.90;;;;;;5029998;28;20053;-69
2021/11/29 08:05:19;;;;;;;27.95;15.32;;;-0.40;99.90;;;;;;5029289;28;20049;-69
2021/11/29 08:07:47;;;;;;;29.73;14.75;;;-0.40;99.90;;;;;;5049356;28;20060;-69
2021/11/29 08:10:14;;;;;;;23.13;14.15;;;-0.40;99.90;;;;;;5048892;28;20056;-69
2021/11/29 08:12:41;;;;;;;30.90;15.95;;;-0.40;99.90;;;;;;5054168;28;20052;-69
2021/11/29 08:15:09;;;;;;;32.78;16.98;;;-0.40;99.90;;;;;;5029485;28;20516;-69
2021/11/29 08:17:35;;;;;;;31.90;17.08;;;-0.40;99.90;;;;;;5036177;28;20160;-69
2021/11/29 08:20:04;;;;;;;28.20;14.77;;;-0.40;99.90;;;;;;5047535;28;20041;-66
2021/11/29 08:22:31;;;;;;;33.95;17.35;;;-0.30;99.90;;;;;;5048889;28;20053;-69
2021/11/29 08:24:58;;;;;;;29.00;15.63;;;-0.30;99.90;;;;;;5032163;28;20499;-70
2021/11/29 08:27:25;;;;;;;31.60;16.00;;;-0.30;99.90;;;;;;5048614;28;20051;-70
2021/11/29 08:29:51;;;;;;;31.85;15.93;;;-0.20;99.90;;;;;;5049348;28;20049;-71
2021/11/29 08:32:18;;;;;;;30.10;15.75;;;-0.20;99.90;;;;;;5049423;28;20047;-70
2021/11/29 08:34:45;;;;;;;34.72;18.75;;;-0.20;99.90;;;;;;5048328;28;20051;-69
2021/11/29 08:37:12;;;;;;;30.67;17.05;;;-0.20;99.90;;;;;;5049343;28;20057;-70
2021/11/29 08:39:39;;;;;;;33.25;16.58;;;-0.10;99.90;;;;;;5050228;28;20056;-68
2021/11/29 08:42:06;;;;;;;31.05;17.45;;;-0.10;99.90;;;;;;5049623;28;20123;-69
2021/11/29 08:44:33;;;;;;;313.58;177.23;;;-0.10;99.90;;;;;;5047410;28;20052;-70
2021/11/29 08:47:00;;;;;;;280.88;202.27;;;0.10;99.90;;;;;;5049685;28;20049;-70
2021/11/29 08:49:27;;;;;;;108.72;54.83;;;0.10;99.90;;;;;;5046957;28;20114;-70
2021/11/29 08:51:55;;;;;;;48.45;26.08;;;0.10;99.90;;;;;;5049255;28;20049;-70
2021/11/29 08:54:26;;;;;;;41.55;21.80;;;0.10;99.90;;;;;;5032601;28;20044;-70
2021/11/29 08:56:53;;;;;;;31.42;18.15;;;0.20;99.90;;;;;;5039462;28;20059;-67
2021/11/29 08:59:23;;;;;;;31.73;17.50;;;0.20;99.90;;;;;;5048012;28;20098;-70
2021/11/29 09:01:51;;;;;;;29.45;16.35;;;0.20;99.90;;;;;;5031984;28;20053;-72
2021/11/29 09:04:18;;;;;;;31.58;17.48;;;0.20;99.90;;;;;;5014129;28;20096;-69
2021/11/29 09:06:45;;;;;;;32.00;19.77;;;0.20;99.90;;;;;;5031267;28;20457;-70
2021/11/29 09:09:12;;;;;;;33.45;17.05;;;0.30;99.90;;;;;;5031790;28;20046;-69
2021/11/29 09:11:39;;;;;;;33.10;16.58;;;0.30;99.90;;;;;;5032046;28;20045;-68
2021/11/29 09:14:06;;;;;;;30.48;16.25;;;0.30;99.90;;;;;;5031158;28;20068;-68
2021/11/29 09:16:34;;;;;;;31.85;16.10;;;0.40;99.90;;;;;;5029879;28;20058;-68
2021/11/29 09:19:01;;;;;;;38.03;17.45;;;0.40;99.90;;;;;;5033895;28;20038;-69
2021/11/29 09:21:28;;;;;;;34.28;17.15;;;0.50;99.90;;;;;;5030270;28;20049;-69
2021/11/29 09:23:59;;;;;;;29.75;16.45;;;0.50;99.90;;;;;;5031397;28;20137;-68
2021/11/29 09:26:26;;;;;;;35.20;18.70;;;0.60;99.90;;;;;;5030784;28;20048;-69
2021/11/29 09:28:52;;;;;;;29.90;16.38;;;0.60;99.90;;;;;;5033232;28;20507;-66
2021/11/29 09:31:19;;;;;;;44.53;25.70;;;0.70;99.90;;;;;;5049461;28;20443;-64
2021/11/29 09:33:46;;;;;;;73.53;44.55;;;0.80;99.90;;;;;;5049590;28;20072;-66
2021/11/29 09:36:13;;;;;;;64.90;35.88;;;0.80;99.90;;;;;;5049805;28;20060;-65
2021/11/29 09:38:40;;;;;;;37.25;20.58;;;0.90;99.90;;;;;;5050971;28;20052;-64
2021/11/29 09:41:07;;;;;;;36.22;18.00;;;1.00;99.90;;;;;;5052807;28;20041;-63
2021/11/29 09:43:37;;;;;;;29.95;16.80;;;1.00;99.90;;;;;;5033564;28;20115;-64
2021/11/29 09:46:06;;;;;;;31.77;15.43;;;1.00;99.90;;;;;;5049250;28;20045;-64
2021/11/29 09:48:33;;;;;;;38.00;18.70;;;1.10;99.90;;;;;;5033448;28;20048;-64
2021/11/29 09:51:20;;;;;;;28.90;15.25;;;1.10;99.90;;;;;;5049222;28;20045;-65
2021/11/29 09:53:47;;;;;;;35.40;18.80;;;1.10;99.90;;;;;;5048935;28;20368;-65
2021/11/29 09:56:14;;;;;;;30.40;17.48;;;1.20;99.90;;;;;;5049137;28;20049;-65
2021/11/29 09:58:41;;;;;;;28.08;16.27;;;1.20;99.90;;;;;;5060074;28;20049;-64
2021/11/29 10:01:08;;;;;;;30.77;16.63;;;1.20;99.90;;;;;;5066034;28;20128;-63
2021/11/29 10:03:55;;;;;;;27.40;16.65;;;1.30;99.90;;;;;;5063778;28;20455;-63
2021/11/29 10:06:22;;;;;;;28.75;15.52;;;1.30;99.90;;;;;;5032935;28;20382;-65
2021/11/29 10:08:50;;;;;;;32.80;15.65;;;1.30;99.90;;;;;;5032869;28;20384;-64
2021/11/29 10:11:25;;;;;;;28.58;15.77;;;1.30;99.90;;;;;;5064248;28;20492;-65
2021/11/29 10:14:06;;;;;;;29.58;16.35;;;1.40;99.90;;;;;;5065373;28;20049;-64
2021/11/29 10:16:44;;;;;;;27.95;15.63;;;1.40;99.90;;;;;;5048809;28;20168;-64
2021/11/29 10:19:34;;;;;;;26.58;15.00;;;1.40;99.90;;;;;;5066461;28;20049;-64
2021/11/29 10:22:19;;;;;;;34.85;16.65;;;1.40;99.90;;;;;;5049669;28;20049;-64
2021/11/29 10:24:46;;;;;;;27.88;15.13;;;1.50;99.90;;;;;;5048966;28;20044;-64
2021/11/29 10:27:14;;;;;;;26.75;15.45;;;1.50;99.90;;;;;;5048953;28;20093;-63
2021/11/29 10:29:51;;;;;;;31.77;16.45;;;1.50;99.90;;;;;;5048558;28;20049;-65
2021/11/29 10:32:30;;;;;;;28.83;15.30;;;1.50;99.90;;;;;;5048941;28;20049;-66
2021/11/29 10:34:57;;;;;;;29.02;14.27;;;1.40;99.90;;;;;;5049851;28;20049;-65
2021/11/29 10:37:29;;;;;;;28.50;16.45;;;1.40;99.90;;;;;;5032586;28;20053;-66
2021/11/29 10:39:56;;;;;;;43.55;18.25;;;1.40;99.90;;;;;;5032324;28;20146;-65
2021/11/29 10:42:25;;;;;;;30.13;17.95;;;1.40;99.90;;;;;;5049010;28;20374;-66
2021/11/29 10:44:54;;;;;;;29.30;17.58;;;1.40;99.90;;;;;;5035837;28;20055;-65
2021/11/29 10:47:21;;;;;;;32.25;18.05;;;1.40;99.90;;;;;;5033516;28;20061;-63
2021/11/29 10:49:56;;;;;;;39.83;22.75;;;1.40;99.90;;;;;;5035199;28;20045;-64
2021/11/29 10:52:25;;;;;;;554.88;356.63;;;1.50;99.90;;;;;;5053194;28;20053;-65
2021/11/29 10:54:52;;;;;;;55.40;35.17;;;1.60;99.90;;;;;;5034140;28;20061;-69
2021/11/29 10:57:20;;;;;;;36.55;20.95;;;1.60;99.90;;;;;;5014559;28;20132;-71
2021/11/29 10:59:48;;;;;;;33.50;20.05;;;1.60;99.90;;;;;;5024993;28;20052;-70
2021/11/29 11:02:19;;;;;;;32.33;17.50;;;1.60;99.90;;;;;;5049753;28;20049;-71
2021/11/29 11:04:48;;;;;;;34.47;17.92;;;1.60;99.90;;;;;;5042234;28;20084;-70
2021/11/29 11:07:21;;;;;;;33.15;17.33;;;1.60;99.90;;;;;;5033872;28;20189;-69
2021/11/29 11:09:55;;;;;;;36.17;20.20;;;1.60;99.90;;;;;;5036158;28;20041;-69
2021/11/29 11:12:27;;;;;;;31.85;17.70;;;1.70;99.90;;;;;;5052195;28;20052;-68
2021/11/29 11:14:56;;;;;;;35.47;17.65;;;1.70;99.90;;;;;;5069001;28;20512;-68
2021/11/29 11:17:51;;;;;;;29.90;16.13;;;1.70;99.90;;;;;;5046141;28;20057;-66
2021/11/29 11:20:17;;;;;;;37.13;18.58;;;1.70;99.90;;;;;;5048241;28;20489;-67
2021/11/29 11:22:46;;;;;;;30.55;16.35;;;1.70;99.90;;;;;;5032090;28;20152;-66
2021/11/29 11:25:22;;;;;;;32.13;17.95;;;1.80;99.90;;;;;;5051633;28;20037;-66
2021/11/29 11:28:00;;;;;;;33.60;18.20;;;1.80;99.90;;;;;;5035783;28;20056;-64
2021/11/29 11:30:29;;;;;;;30.40;16.60;;;1.70;99.90;;;;;;5051999;28;20049;-65
2021/11/29 11:33:20;;;;;;;33.13;18.15;;;1.70;99.90;;;;;;5031845;28;20071;-65
2021/11/29 11:35:49;;;;;;;27.15;16.23;;;1.70;99.90;;;;;;5047152;28;20053;-67
2021/11/29 11:38:21;;;;;;;30.40;16.52;;;1.70;99.90;;;;;;5068841;28;20088;-65
2021/11/29 11:40:52;;;;;;;33.03;17.00;;;1.70;99.90;;;;;;5053280;28;20049;-66
2021/11/29 11:43:21;;;;;;;31.65;17.50;;;1.80;99.90;;;;;;5052015;28;20099;-64
2021/11/29 11:45:48;;;;;;;35.07;17.40;;;1.70;99.90;;;;;;5068203;28;20048;-67
2021/11/29 11:48:17;;;;;;;31.17;16.25;;;1.70;99.90;;;;;;5051494;28;20049;-65
2021/11/29 11:50:47;;;;;;;29.38;17.00;;;1.80;99.90;;;;;;5068087;28;20071;-65
2021/11/29 11:53:16;;;;;;;51.78;28.73;;;1.80;99.90;;;;;;5052463;28;20064;-65
2021/11/29 11:55:45;;;;;;;41.38;23.88;;;1.90;99.90;;;;;;5052549;28;20051;-62
2021/11/29 11:58:18;;;;;;;35.95;20.85;;;1.90;99.90;;;;;;5050686;28;20053;-64
2021/11/29 12:00:50;;;;;;;30.15;18.02;;;1.90;99.90;;;;;;5024326;28;20049;-71
2021/11/29 12:03:31;;;;;;;33.88;17.88;;;1.90;99.90;;;;;;5050648;28;20053;-68
2021/11/29 12:06:03;;;;;;;32.10;17.48;;;1.90;99.90;;;;;;5048985;28;20124;-71
2021/11/29 12:08:48;;;;;;;59.17;28.70;;;1.90;99.90;;;;;;5051385;28;20044;-69
2021/11/29 12:11:27;;;;;;;39.03;21.05;;;2.00;99.90;;;;;;5047326;28;20055;-70
2021/11/29 12:14:11;;;;;;;31.27;19.05;;;2.00;99.90;;;;;;5052032;28;20556;-73
2021/11/29 12:16:43;;;;;;;32.33;18.48;;;2.00;99.90;;;;;;5050487;28;20060;-76
2021/11/29 12:19:35;;;;;;;37.33;21.25;;;2.10;99.90;;;;;;5051026;28;20535;-72
2021/11/29 12:22:10;;;;;;;43.15;23.60;;;2.10;99.90;;;;;;5042029;28;20040;-73
2021/11/29 12:24:45;;;;;;;35.63;19.80;;;2.20;99.90;;;;;;5055251;28;20459;-75
2021/11/29 12:27:12;;;;;;;32.90;19.13;;;2.20;99.90;;;;;;5052829;28;20431;-73
2021/11/29 12:29:39;;;;;;;39.13;20.42;;;2.20;99.90;;;;;;5052187;28;20083;-74
2021/11/29 12:32:10;;;;;;;33.65;18.77;;;2.20;99.90;;;;;;5051845;28;20056;-71
2021/11/29 12:34:44;;;;;;;34.40;18.27;;;2.30;99.90;;;;;;5051048;28;20133;-67
2021/11/29 12:37:14;;;;;;;411.00;267.42;;;2.30;99.90;;;;;;5051666;28;20053;-66